createdAt,value
2022-11-19T00:01:10.882Z,52.84
2022-11-19T00:03:38.682Z,52.77
2022-11-19T00:06:07.932Z,52.55
2022-11-19T00:08:34.990Z,52.52
2022-11-19T00:11:15.371Z,52.93
2022-11-19T00:13:43.174Z,52.22
2022-11-19T00:16:12.751Z,52.63
2022-11-19T00:18:40.709Z,52.31
2022-11-19T00:21:12.473Z,52.71
2022-11-19T00:23:39.966Z,52.50
2022-11-19T00:26:11.754Z,52.45
2022-11-19T00:28:39.055Z,52.31
2022-11-19T00:31:08.430Z,52.57
2022-11-19T00:33:35.448Z,52.72
2022-11-19T00:36:03.007Z,52.32
2022-11-19T00:38:30.834Z,52.33
2022-11-19T00:40:57.913Z,52.41
2022-11-19T00:43:43.508Z,52.57
2022-11-19T00:46:10.639Z,52.32
2022-11-19T00:48:39.139Z,52.56
2022-11-19T00:51:09.622Z,52.52
2022-11-19T00:53:36.915Z,52.63
2022-11-19T00:56:06.297Z,52.24
2022-11-19T00:58:33.170Z,52.67
2022-11-19T01:00:59.889Z,52.70
2022-11-19T01:03:26.734Z,52.60
2022-11-19T01:05:53.661Z,52.48
2022-11-19T01:08:20.425Z,52.46
2022-11-19T01:10:47.113Z,52.52
2022-11-19T01:13:32.736Z,52.58
2022-11-19T01:15:59.440Z,52.73
2022-11-19T01:18:26.854Z,52.56
2022-11-19T01:20:53.940Z,52.57
2022-11-19T01:23:20.620Z,52.49
2022-11-19T01:25:47.521Z,52.65
2022-11-19T01:28:14.259Z,52.86
2022-11-19T01:30:42.531Z,52.82
2022-11-19T01:33:16.839Z,52.52
2022-11-19T01:35:54.156Z,52.88
2022-11-19T01:38:20.947Z,52.60
2022-11-19T01:40:47.585Z,52.86
2022-11-19T01:43:14.459Z,52.72
2022-11-19T01:45:44.604Z,52.81
2022-11-19T01:48:14.590Z,52.64
2022-11-19T01:50:59.658Z,52.84
2022-11-19T01:53:29.490Z,52.84
2022-11-19T01:56:03.750Z,53.05
2022-11-19T01:58:40.121Z,52.81
2022-11-19T02:01:10.920Z,52.96
2022-11-19T02:03:38.936Z,52.73
2022-11-19T02:06:06.582Z,52.67
2022-11-19T02:08:45.142Z,53.24
2022-11-19T02:11:18.034Z,52.94
2022-11-19T02:14:13.514Z,52.99
2022-11-19T02:16:54.273Z,53.17
2022-11-19T02:19:34.667Z,52.76
2022-11-19T02:22:20.114Z,53.19
2022-11-19T02:25:20.402Z,53.08
2022-11-19T02:28:08.497Z,52.91
2022-11-19T02:30:40.126Z,52.61
2022-11-19T02:33:14.948Z,52.88
2022-11-19T02:35:41.694Z,52.78
2022-11-19T02:38:40.245Z,53.15
2022-11-19T02:41:38.447Z,53.40
2022-11-19T02:44:35.730Z,53.21
2022-11-19T02:47:05.614Z,52.87
2022-11-19T02:49:34.335Z,53.09
2022-11-19T02:52:01.680Z,53.07
2022-11-19T02:54:28.753Z,52.85
2022-11-19T02:57:00.700Z,52.95
2022-11-19T03:00:01.677Z,53.21
2022-11-19T03:02:53.570Z,53.09
2022-11-19T03:05:22.580Z,53.03
2022-11-19T03:07:50.401Z,53.12
2022-11-19T03:10:18.468Z,52.91
2022-11-19T03:12:51.561Z,53.28
2022-11-19T03:16:06.309Z,52.95
2022-11-19T03:18:35.906Z,53.23
2022-11-19T03:21:15.972Z,53.16
2022-11-19T03:23:53.449Z,53.26
2022-11-19T03:26:40.337Z,53.34
2022-11-19T03:29:10.188Z,52.96
2022-11-19T03:31:38.727Z,52.93
2022-11-19T03:34:11.680Z,52.85
2022-11-19T03:36:40.785Z,53.04
2022-11-19T03:39:14.374Z,53.24
2022-11-19T03:41:42.614Z,53.03
2022-11-19T03:44:31.514Z,53.14
2022-11-19T03:47:02.123Z,53.10
2022-11-19T03:49:31.731Z,53.07
2022-11-19T03:52:19.496Z,52.70
2022-11-19T03:54:46.637Z,53.19
2022-11-19T03:57:16.141Z,53.30
2022-11-19T03:59:42.877Z,53.16
2022-11-19T04:02:11.332Z,53.03
2022-11-19T04:04:38.797Z,53.05
2022-11-19T04:07:08.470Z,53.20
2022-11-19T04:09:35.632Z,53.10
2022-11-19T04:12:02.597Z,52.93
2022-11-19T04:14:29.391Z,53.45
2022-11-19T04:16:56.561Z,53.29
2022-11-19T04:19:23.290Z,53.37
2022-11-19T04:21:50.353Z,53.39
2022-11-19T04:24:17.420Z,53.47
2022-11-19T04:26:44.126Z,53.05
2022-11-19T04:29:10.819Z,53.17
2022-11-19T04:31:37.811Z,53.39
2022-11-19T04:34:04.724Z,53.22
2022-11-19T04:36:31.426Z,53.17
2022-11-19T04:38:58.225Z,53.09
2022-11-19T04:41:25.183Z,53.14
2022-11-19T04:43:51.993Z,53.04
2022-11-19T04:46:18.770Z,52.98
2022-11-19T04:48:45.626Z,53.21
2022-11-19T04:51:12.279Z,53.11
2022-11-19T04:53:39.038Z,53.29
2022-11-19T04:56:06.626Z,53.24
2022-11-19T04:58:34.857Z,53.46
2022-11-19T05:01:01.678Z,53.04
2022-11-19T05:03:28.954Z,53.33
2022-11-19T05:05:55.603Z,53.28
2022-11-19T05:08:22.602Z,53.04
2022-11-19T05:10:49.258Z,53.23
2022-11-19T05:13:16.024Z,53.08
2022-11-19T05:15:42.740Z,53.41
2022-11-19T05:18:09.582Z,53.42
2022-11-19T05:20:36.308Z,53.02
2022-11-19T05:23:03.058Z,53.21
2022-11-19T05:25:29.698Z,53.11
2022-11-19T05:27:56.420Z,53.45
2022-11-19T05:30:23.474Z,53.19
2022-11-19T05:32:50.329Z,53.08
2022-11-19T05:35:17.177Z,53.45
2022-11-19T05:37:43.878Z,53.13
2022-11-19T05:40:10.834Z,53.51
2022-11-19T05:42:37.615Z,53.54
2022-11-19T05:45:04.788Z,53.50
2022-11-19T05:47:31.575Z,53.22
2022-11-19T05:49:58.342Z,53.15
2022-11-19T05:52:25.534Z,53.31
2022-11-19T05:54:52.912Z,53.11
2022-11-19T05:57:19.838Z,53.52
2022-11-19T05:59:46.562Z,53.37
2022-11-19T06:02:13.307Z,53.49
2022-11-19T06:04:39.986Z,53.15
2022-11-19T06:07:12.089Z,53.16
2022-11-19T06:09:40.113Z,53.12
2022-11-19T06:12:07.154Z,53.26
2022-11-19T06:14:33.974Z,53.22
2022-11-19T06:17:01.449Z,53.54
2022-11-19T06:19:28.170Z,53.14
2022-11-19T06:21:54.849Z,53.46
2022-11-19T06:24:21.721Z,53.38
2022-11-19T06:26:48.507Z,53.36
2022-11-19T06:29:16.536Z,53.53
2022-11-19T06:31:43.757Z,53.49
2022-11-19T06:34:11.538Z,53.33
2022-11-19T06:36:42.793Z,53.06
2022-11-19T06:39:12.014Z,53.48
2022-11-19T06:41:38.726Z,52.98
2022-11-19T06:44:05.441Z,53.45
2022-11-19T06:46:32.121Z,53.24
2022-11-19T06:48:58.954Z,52.99
2022-11-19T06:51:25.892Z,52.82
2022-11-19T06:53:52.621Z,52.74
2022-11-19T06:56:19.295Z,52.94
2022-11-19T06:58:46.188Z,52.82
2022-11-19T07:01:15.155Z,52.86
2022-11-19T07:03:42.328Z,53.01
2022-11-19T07:06:09.265Z,52.94
2022-11-19T07:08:37.435Z,53.10
2022-11-19T07:11:24.523Z,52.92
2022-11-19T07:13:57.848Z,53.23
2022-11-19T07:16:30.599Z,53.04
2022-11-19T07:19:02.328Z,53.56
2022-11-19T07:21:33.265Z,53.21
2022-11-19T07:24:01.639Z,53.41
2022-11-19T07:26:28.460Z,53.42
2022-11-19T07:28:55.285Z,53.65
2022-11-19T07:31:21.956Z,53.92
2022-11-19T07:33:48.808Z,53.74
2022-11-19T07:36:18.374Z,54.01
2022-11-19T07:38:45.987Z,54.05
2022-11-19T07:41:31.891Z,54.17
2022-11-19T07:43:58.624Z,53.92
2022-11-19T07:46:25.302Z,54.22
2022-11-19T07:48:56.869Z,54.42
2022-11-19T07:51:24.314Z,54.66
2022-11-19T07:53:51.437Z,54.42
2022-11-19T07:56:19.070Z,54.76
2022-11-19T07:58:45.832Z,54.59
2022-11-19T08:01:18.523Z,54.19
2022-11-19T08:03:49.614Z,54.42
2022-11-19T08:06:20.878Z,55.14
2022-11-19T08:08:47.900Z,55.10
2022-11-19T08:11:16.231Z,54.51
2022-11-19T08:13:43.617Z,54.80
2022-11-19T08:16:12.631Z,55.13
2022-11-19T08:18:39.771Z,54.84
2022-11-19T08:21:11.339Z,54.69
2022-11-19T08:23:39.061Z,55.16
2022-11-19T08:26:09.015Z,54.72
2022-11-19T08:28:35.878Z,55.06
2022-11-19T08:31:09.886Z,55.12
2022-11-19T08:33:36.722Z,54.98
2022-11-19T08:36:03.909Z,54.64
2022-11-19T08:38:34.537Z,55.12
2022-11-19T08:41:22.619Z,54.61
2022-11-19T08:43:49.362Z,54.70
2022-11-19T08:46:16.071Z,54.84
2022-11-19T08:48:42.994Z,54.78
2022-11-19T08:51:10.639Z,54.74
2022-11-19T08:53:37.645Z,55.11
2022-11-19T08:56:05.416Z,54.58
2022-11-19T08:58:32.482Z,54.89
2022-11-19T09:00:59.290Z,54.52
2022-11-19T09:03:26.409Z,54.97
2022-11-19T09:06:00.448Z,54.77
2022-11-19T09:08:27.433Z,55.29
2022-11-19T09:10:55.489Z,54.69
2022-11-19T09:13:22.514Z,54.46
2022-11-19T09:15:50.017Z,54.47
2022-11-19T09:18:17.849Z,54.81
2022-11-19T09:20:44.509Z,55.00
2022-11-19T09:23:11.346Z,54.73
2022-11-19T09:25:38.057Z,54.34
2022-11-19T09:28:05.072Z,54.67
2022-11-19T09:30:32.170Z,54.49
2022-11-19T09:33:04.193Z,54.46
2022-11-19T09:35:34.395Z,54.45
2022-11-19T09:38:01.210Z,54.25
2022-11-19T09:40:28.078Z,54.40
2022-11-19T09:42:59.106Z,54.06
2022-11-19T09:45:53.383Z,54.72
2022-11-19T09:48:32.518Z,54.70
2022-11-19T09:51:07.695Z,54.65
2022-11-19T09:53:55.023Z,54.64
2022-11-19T09:56:33.569Z,54.76
2022-11-19T09:59:03.702Z,54.81
2022-11-19T10:01:30.469Z,54.31
2022-11-19T10:03:57.467Z,54.41
2022-11-19T10:06:40.099Z,54.22
2022-11-19T10:09:17.767Z,54.40
2022-11-19T10:12:12.615Z,54.99
2022-11-19T10:14:45.411Z,54.93
2022-11-19T10:17:58.624Z,54.98
2022-11-19T10:20:33.237Z,54.79
2022-11-19T10:23:17.133Z,54.85
2022-11-19T10:25:46.531Z,54.98
2022-11-19T10:28:15.894Z,55.35
2022-11-19T10:30:49.254Z,55.64
2022-11-19T10:33:29.438Z,55.19
2022-11-19T10:36:03.616Z,55.14
2022-11-19T10:38:49.998Z,55.44
2022-11-19T10:41:48.587Z,55.78
2022-11-19T10:44:43.086Z,55.07
2022-11-19T10:47:17.789Z,55.60
2022-11-19T10:49:46.017Z,55.99
2022-11-19T10:52:28.901Z,55.82
2022-11-19T10:55:20.805Z,55.29
2022-11-19T10:57:48.518Z,55.42
2022-11-19T11:00:17.130Z,55.33
2022-11-19T11:02:54.525Z,55.63
2022-11-19T11:05:21.315Z,56.16
2022-11-19T11:07:50.322Z,56.11
2022-11-19T11:10:28.399Z,56.25
2022-11-19T11:13:16.791Z,55.82
2022-11-19T11:15:50.587Z,55.67
2022-11-19T11:18:18.213Z,55.55
2022-11-19T11:20:47.770Z,55.75
2022-11-19T11:23:19.796Z,55.62
2022-11-19T11:25:53.926Z,55.28
2022-11-19T11:28:22.477Z,55.58
2022-11-19T11:31:10.349Z,55.63
2022-11-19T11:33:41.232Z,55.34
2022-11-19T11:36:14.045Z,55.54
2022-11-19T11:38:49.187Z,55.39
2022-11-19T11:44:14.638Z,55.28
2022-11-19T11:46:45.933Z,54.95
2022-11-19T11:49:18.957Z,55.09
2022-11-19T11:51:45.724Z,54.88
2022-11-19T11:54:20.513Z,55.00
2022-11-19T11:56:47.646Z,54.95
2022-11-19T11:59:21.667Z,54.92
2022-11-19T12:02:01.761Z,55.09
2022-11-19T12:04:29.250Z,54.73
2022-11-19T12:07:40.252Z,54.94
2022-11-19T12:10:35.818Z,55.13
2022-11-19T12:13:17.661Z,54.93
2022-11-19T12:15:56.444Z,54.61
2022-11-19T12:18:39.509Z,54.39
2022-11-19T12:21:11.937Z,54.21
2022-11-19T12:24:17.247Z,54.59
2022-11-19T12:26:58.931Z,54.41
2022-11-19T12:29:42.013Z,54.48
2022-11-19T12:32:19.407Z,54.46
2022-11-19T12:34:56.748Z,54.20
2022-11-19T12:37:39.062Z,53.93
2022-11-19T12:40:26.547Z,54.05
2022-11-19T12:43:20.240Z,54.53
2022-11-19T12:46:05.677Z,54.31
2022-11-19T12:48:47.217Z,54.48
2022-11-19T12:51:33.284Z,54.34
2022-11-19T12:54:31.708Z,54.52
2022-11-19T12:57:11.993Z,54.22
2022-11-19T12:59:48.350Z,54.29
2022-11-19T13:02:58.625Z,54.59
2022-11-19T13:05:37.717Z,54.37
2022-11-19T13:08:40.236Z,54.23
2022-11-19T13:11:16.413Z,54.49
2022-11-19T13:13:55.194Z,54.19
2022-11-19T13:16:22.753Z,54.49
2022-11-19T13:18:52.388Z,54.39
2022-11-19T13:21:24.522Z,54.72
2022-11-19T13:23:52.418Z,54.67
2022-11-19T13:26:30.347Z,54.25
2022-11-19T13:29:30.032Z,54.66
2022-11-19T13:32:01.365Z,54.49
2022-11-19T13:34:47.402Z,54.71
2022-11-19T13:37:22.606Z,54.10
2022-11-19T13:39:53.678Z,54.27
2022-11-19T13:42:40.541Z,54.13
2022-11-19T13:45:14.863Z,53.93
2022-11-19T13:47:58.093Z,54.42
2022-11-19T13:50:31.330Z,54.06
2022-11-19T13:53:05.586Z,54.01
2022-11-19T13:55:37.796Z,53.89
2022-11-19T13:58:19.634Z,54.07
2022-11-19T14:01:09.760Z,54.39
2022-11-19T14:04:13.772Z,54.39
2022-11-19T14:06:55.652Z,54.09
2022-11-19T14:09:36.173Z,54.14
2022-11-19T14:12:57.236Z,54.21
2022-11-19T14:16:00.729Z,54.41
2022-11-19T14:18:54.907Z,54.07
2022-11-19T14:21:44.090Z,54.18
2022-11-19T14:24:44.234Z,54.50
2022-11-19T14:27:17.878Z,54.15
2022-11-19T14:29:44.862Z,54.07
2022-11-19T14:32:11.558Z,54.38
2022-11-19T14:35:22.128Z,54.51
2022-11-19T14:38:05.862Z,54.22
2022-11-19T14:40:33.680Z,54.21
2022-11-19T14:43:18.798Z,54.19
2022-11-19T14:46:00.986Z,54.74
2022-11-19T14:48:29.421Z,54.50
2022-11-19T14:51:06.308Z,54.25
2022-11-19T14:53:34.622Z,54.02
2022-11-19T14:56:01.858Z,54.38
2022-11-19T14:58:28.772Z,54.21
2022-11-19T15:01:13.584Z,54.68
2022-11-19T15:03:52.510Z,54.54
2022-11-19T15:06:19.919Z,54.01
2022-11-19T15:08:57.274Z,54.21
2022-11-19T15:11:23.980Z,54.22
2022-11-19T15:14:27.987Z,54.56
2022-11-19T15:16:55.582Z,54.21
2022-11-19T15:19:37.697Z,54.37
2022-11-19T15:22:48.951Z,54.41
2022-11-19T15:25:39.698Z,54.64
2022-11-19T15:28:09.372Z,54.59
2022-11-19T15:30:43.602Z,54.40
2022-11-19T15:33:16.266Z,54.64
2022-11-19T15:36:08.563Z,54.74
2022-11-19T15:38:42.553Z,54.55
2022-11-19T15:41:14.268Z,54.50
2022-11-19T15:43:43.877Z,54.68
2022-11-19T15:46:13.878Z,54.80
2022-11-19T15:49:14.154Z,55.22
2022-11-19T15:52:02.027Z,54.95
2022-11-19T15:54:33.693Z,54.72
2022-11-19T15:57:17.753Z,55.00
2022-11-19T15:59:51.789Z,54.49
2022-11-19T16:02:22.143Z,54.69
2022-11-19T16:04:50.846Z,54.98
2022-11-19T16:07:23.402Z,55.17
2022-11-19T16:09:50.861Z,55.31
2022-11-19T16:12:40.883Z,55.23
2022-11-19T16:15:42.163Z,55.30
2022-11-19T16:18:13.683Z,55.04
2022-11-19T16:20:40.858Z,55.46
2022-11-19T16:23:09.002Z,55.28
2022-11-19T16:25:37.744Z,55.34
2022-11-19T16:28:07.333Z,55.44
2022-11-19T16:30:49.206Z,55.54
2022-11-19T16:33:21.447Z,55.06
2022-11-19T16:35:52.814Z,55.37
2022-11-19T16:38:28.239Z,55.09
2022-11-19T16:41:14.618Z,55.43
2022-11-19T16:43:48.374Z,55.40
2022-11-19T16:46:17.683Z,55.08
2022-11-19T16:48:50.588Z,55.30
2022-11-19T16:51:29.422Z,55.50
2022-11-19T16:53:56.133Z,55.56
2022-11-19T16:56:23.425Z,55.66
2022-11-19T16:58:54.547Z,55.73
2022-11-19T17:01:23.475Z,55.61
2022-11-19T17:03:59.875Z,55.68
2022-11-19T17:06:31.308Z,56.02
2022-11-19T17:09:00.544Z,55.57
2022-11-19T17:12:04.346Z,55.75
2022-11-19T17:14:31.173Z,55.80
2022-11-19T17:16:57.976Z,55.63
2022-11-19T17:19:27.218Z,55.76
2022-11-19T17:22:00.232Z,55.93
2022-11-19T17:24:31.653Z,55.78
2022-11-19T17:26:58.766Z,55.38
2022-11-19T17:29:26.297Z,55.31
2022-11-19T17:31:54.653Z,55.69
2022-11-19T17:34:22.472Z,55.34
2022-11-19T17:36:50.153Z,55.73
2022-11-19T17:39:22.516Z,55.13
2022-11-19T17:42:14.837Z,55.22
2022-11-19T17:44:44.754Z,55.62
2022-11-19T17:47:23.627Z,55.42
2022-11-19T17:49:51.358Z,54.87
2022-11-19T17:52:27.118Z,55.37
2022-11-19T17:54:56.302Z,55.04
2022-11-19T17:57:23.004Z,55.31
2022-11-19T17:59:49.951Z,55.13
2022-11-19T18:02:25.060Z,55.30
2022-11-19T18:04:52.717Z,55.07
2022-11-19T18:07:19.518Z,55.16
2022-11-19T18:09:46.793Z,55.25
2022-11-19T18:12:18.288Z,55.27
2022-11-19T18:14:45.189Z,55.19
2022-11-19T18:17:13.099Z,54.95
2022-11-19T18:19:40.223Z,55.04
2022-11-19T18:22:10.092Z,55.07
2022-11-19T18:24:36.873Z,54.73
2022-11-19T18:27:03.881Z,54.69
2022-11-19T18:29:31.972Z,55.05
2022-11-19T18:31:58.689Z,54.64
2022-11-19T18:34:25.554Z,54.97
2022-11-19T18:36:52.321Z,54.75
2022-11-19T18:39:19.677Z,54.82
2022-11-19T18:41:47.037Z,54.45
2022-11-19T18:44:34.113Z,54.44
2022-11-19T18:47:03.078Z,54.41
2022-11-19T18:49:29.929Z,54.70
2022-11-19T18:51:56.772Z,54.42
2022-11-19T18:54:23.593Z,54.29
2022-11-19T18:56:50.407Z,54.36
2022-11-19T18:59:17.123Z,54.29
2022-11-19T19:01:44.038Z,54.39
2022-11-19T19:04:14.353Z,54.42
2022-11-19T19:06:41.731Z,54.19
2022-11-19T19:09:10.435Z,54.37
2022-11-19T19:11:56.550Z,54.27
2022-11-19T19:14:23.364Z,54.00
2022-11-19T19:16:51.019Z,54.29
2022-11-19T19:19:20.150Z,54.36
2022-11-19T19:21:47.370Z,53.98
2022-11-19T19:24:14.548Z,54.06
2022-11-19T19:26:41.741Z,54.32
2022-11-19T19:29:08.591Z,53.87
2022-11-19T19:31:35.952Z,53.84
2022-11-19T19:34:03.439Z,53.99
2022-11-19T19:36:30.529Z,54.21
2022-11-19T19:38:57.228Z,54.06
2022-11-19T19:41:25.567Z,53.78
2022-11-19T19:43:53.724Z,54.08
2022-11-19T19:46:22.341Z,54.07
2022-11-19T19:48:53.847Z,54.00
2022-11-19T19:51:22.489Z,53.56
2022-11-19T19:53:51.090Z,53.98
2022-11-19T19:56:23.187Z,53.77
2022-11-19T19:58:50.942Z,53.72
2022-11-19T20:01:19.220Z,53.48
2022-11-19T20:03:49.260Z,53.37
2022-11-19T20:06:21.793Z,53.58
2022-11-19T20:08:48.511Z,53.58
2022-11-19T20:11:20.690Z,53.75
2022-11-19T20:13:47.999Z,53.91
2022-11-19T20:16:18.514Z,53.79
2022-11-19T20:18:45.871Z,53.47
2022-11-19T20:21:14.594Z,53.23
2022-11-19T20:23:42.373Z,53.14
2022-11-19T20:26:16.026Z,53.63
2022-11-19T20:28:43.045Z,53.69
2022-11-19T20:31:17.942Z,53.50
2022-11-19T20:33:45.805Z,53.68
2022-11-19T20:36:15.088Z,53.34
2022-11-19T20:38:43.543Z,53.67
2022-11-19T20:41:32.157Z,53.25
2022-11-19T20:44:18.080Z,53.15
2022-11-19T20:46:45.178Z,53.19
2022-11-19T20:49:16.932Z,53.55
2022-11-19T20:51:45.098Z,53.46
2022-11-19T20:54:12.359Z,53.41
2022-11-19T20:56:39.657Z,53.12
2022-11-19T20:59:06.490Z,53.25
2022-11-19T21:01:33.859Z,53.17
2022-11-19T21:04:00.958Z,53.30
2022-11-19T21:06:27.927Z,53.29
2022-11-19T21:08:54.585Z,53.30
2022-11-19T21:11:21.629Z,52.88
2022-11-19T21:13:48.365Z,52.94
2022-11-19T21:16:18.726Z,53.31
2022-11-19T21:18:45.932Z,53.20
2022-11-19T21:21:15.217Z,52.99
2022-11-19T21:23:42.677Z,53.08
2022-11-19T21:26:16.959Z,53.22
2022-11-19T21:28:48.499Z,52.81
2022-11-19T21:31:16.377Z,52.91
2022-11-19T21:33:44.042Z,52.63
2022-11-19T21:36:11.623Z,52.68
2022-11-19T21:38:38.649Z,53.00
2022-11-19T21:41:05.819Z,53.03
2022-11-19T21:43:32.764Z,52.74
2022-11-19T21:45:59.562Z,52.98
2022-11-19T21:48:27.229Z,52.39
2022-11-19T21:50:54.506Z,52.62
2022-11-19T21:53:21.494Z,52.95
2022-11-19T21:55:48.739Z,52.95
2022-11-19T21:58:15.609Z,52.84
2022-11-19T22:00:43.975Z,52.90
2022-11-19T22:03:10.806Z,52.48
2022-11-19T22:05:37.679Z,52.46
2022-11-19T22:08:04.447Z,52.79
2022-11-19T22:10:31.339Z,52.70
2022-11-19T22:12:59.046Z,52.77
2022-11-19T22:15:27.028Z,52.74
2022-11-19T22:17:54.070Z,52.77
2022-11-19T22:20:20.948Z,52.40
2022-11-19T22:22:47.609Z,52.55
2022-11-19T22:25:14.655Z,52.54
2022-11-19T22:27:41.901Z,52.26
2022-11-19T22:30:10.236Z,52.58
2022-11-19T22:32:37.278Z,52.56
2022-11-19T22:35:04.874Z,52.67
2022-11-19T22:37:32.075Z,52.45
2022-11-19T22:39:58.909Z,52.40
2022-11-19T22:42:25.710Z,52.50
2022-11-19T22:44:52.962Z,52.27
2022-11-19T22:47:19.678Z,52.44
2022-11-19T22:49:46.395Z,52.46
2022-11-19T22:52:14.678Z,52.48
2022-11-19T22:54:42.088Z,52.53
2022-11-19T22:57:09.363Z,52.12
2022-11-19T22:59:36.209Z,52.14
2022-11-19T23:02:03.010Z,52.09
2022-11-19T23:04:29.751Z,52.42
2022-11-19T23:06:56.825Z,52.49
2022-11-19T23:09:23.726Z,52.05
2022-11-19T23:12:09.032Z,52.37
2022-11-19T23:14:35.798Z,52.39
2022-11-19T23:17:02.527Z,52.16
2022-11-19T23:19:29.346Z,51.97
2022-11-19T23:21:55.949Z,52.01
2022-11-19T23:24:22.702Z,52.04
2022-11-19T23:26:49.415Z,52.32
2022-11-19T23:29:16.250Z,52.13
2022-11-19T23:31:42.894Z,52.38
2022-11-19T23:34:09.633Z,52.27
2022-11-19T23:36:38.614Z,52.41
2022-11-19T23:39:08.151Z,51.97
2022-11-19T23:41:34.948Z,52.22
2022-11-19T23:44:01.950Z,52.44
2022-11-19T23:46:31.606Z,52.24
2022-11-19T23:48:58.956Z,52.04
2022-11-19T23:51:29.558Z,52.14
2022-11-19T23:53:56.285Z,52.21
2022-11-19T23:56:24.455Z,52.13
2022-11-19T23:58:51.857Z,51.81
